createdAt,value
2022-11-21T00:04:05.943Z,10.82
2022-11-21T00:09:04.236Z,11.88
2022-11-21T00:14:03.892Z,10.70
2022-11-21T00:19:02.103Z,12.88
2022-11-21T00:24:00.339Z,12.15
2022-11-21T00:28:58.685Z,11.68
2022-11-21T00:33:58.294Z,12.77
2022-11-21T00:38:56.519Z,12.60
2022-11-21T00:43:54.747Z,16.73
2022-11-21T00:48:53.015Z,15.70
2022-11-21T00:53:52.645Z,17.08
2022-11-21T00:58:50.798Z,14.48
2022-11-21T01:03:49.118Z,13.25
2022-11-21T01:08:47.317Z,10.48
2022-11-21T01:13:46.991Z,9.85
2022-11-21T01:18:45.439Z,9.48
2022-11-21T01:23:43.677Z,9.15
2022-11-21T01:28:42.079Z,11.77
2022-11-21T01:33:42.019Z,12.60
2022-11-21T01:38:40.686Z,23.65
2022-11-21T01:43:39.318Z,19.92
2022-11-21T01:48:39.275Z,20.80
2022-11-21T01:53:39.800Z,15.23
2022-11-21T01:58:39.371Z,17.48
2022-11-21T02:03:39.212Z,20.55
2022-11-21T02:08:39.231Z,18.63
2022-11-21T02:13:37.435Z,13.05
2022-11-21T02:18:35.744Z,13.23
2022-11-21T02:23:38.780Z,11.70
2022-11-21T02:28:38.451Z,14.38
2022-11-21T02:33:36.755Z,11.60
2022-11-21T02:38:36.768Z,14.50
2022-11-21T02:43:38.019Z,11.80
2022-11-21T02:48:38.509Z,10.98
2022-11-21T02:53:36.828Z,12.13
2022-11-21T02:58:35.119Z,10.52
2022-11-21T03:03:33.350Z,10.15
2022-11-21T03:08:32.947Z,8.48
2022-11-21T03:13:31.163Z,14.93
2022-11-21T03:18:29.383Z,10.00
2022-11-21T03:23:27.650Z,9.38
2022-11-21T03:28:27.248Z,11.43
2022-11-21T03:33:25.452Z,10.60
2022-11-21T03:38:23.715Z,10.40
2022-11-21T03:43:21.965Z,9.77
2022-11-21T03:48:21.538Z,8.48
2022-11-21T03:53:19.756Z,11.10
2022-11-21T03:58:17.974Z,9.70
2022-11-21T04:03:16.227Z,10.32
2022-11-21T04:08:15.831Z,16.08
2022-11-21T04:13:14.062Z,9.23
2022-11-21T04:18:12.527Z,8.70
2022-11-21T04:23:10.748Z,10.38
2022-11-21T04:28:13.549Z,8.65
2022-11-21T04:33:12.647Z,9.52
2022-11-21T04:38:10.944Z,7.45
2022-11-21T04:43:10.512Z,6.70
2022-11-21T04:48:08.860Z,9.57
2022-11-21T04:53:07.055Z,8.10
2022-11-21T04:58:05.257Z,7.03
2022-11-21T05:03:05.532Z,7.15
2022-11-21T05:08:03.884Z,6.70
2022-11-21T05:13:19.641Z,6.90
2022-11-21T05:18:19.242Z,9.13
2022-11-21T05:23:17.471Z,7.82
2022-11-21T05:28:15.758Z,7.07
2022-11-21T05:33:13.998Z,8.13
2022-11-21T05:38:13.701Z,8.38
2022-11-21T05:43:29.810Z,7.50
2022-11-21T05:48:28.019Z,12.45
2022-11-21T05:53:27.625Z,8.32
2022-11-21T05:58:25.782Z,12.90
2022-11-21T06:03:30.921Z,8.32
2022-11-21T06:08:30.926Z,11.45
2022-11-21T06:13:29.309Z,7.47
2022-11-21T06:18:27.875Z,9.20
2022-11-21T06:23:26.027Z,11.43
2022-11-21T06:28:25.681Z,32.92
2022-11-21T06:33:23.876Z,10.73
2022-11-21T06:38:22.032Z,10.55
2022-11-21T06:43:20.218Z,8.27
2022-11-21T06:48:19.812Z,8.43
2022-11-21T06:53:17.962Z,11.77
2022-11-21T06:58:16.083Z,37.42
2022-11-21T07:03:14.238Z,31.42
2022-11-21T07:08:13.768Z,19.77
2022-11-21T07:13:24.779Z,40.83
2022-11-21T07:18:23.495Z,20.13
2022-11-21T07:23:23.015Z,25.42
2022-11-21T07:28:21.312Z,18.25
2022-11-21T07:33:19.459Z,33.63
2022-11-21T07:38:17.604Z,25.23
2022-11-21T08:12:36.681Z,14.07
2022-11-21T08:17:34.839Z,13.13
2022-11-21T08:22:32.976Z,13.18
2022-11-21T08:27:31.193Z,19.48
2022-11-21T08:32:30.705Z,19.00
2022-11-21T08:37:29.270Z,20.92
2022-11-21T08:42:27.647Z,17.92
2022-11-21T08:47:25.842Z,40.67
2022-11-21T08:52:25.343Z,22.17
2022-11-21T08:57:23.491Z,20.92
2022-11-21T09:02:21.644Z,24.42
2022-11-21T09:07:19.865Z,21.50
2022-11-21T09:12:19.432Z,29.15
2022-11-21T09:17:40.158Z,36.47
2022-11-21T09:22:38.300Z,31.80
2022-11-21T09:27:37.965Z,28.65
2022-11-21T09:32:37.049Z,25.85
2022-11-21T09:37:37.387Z,24.67
2022-11-21T09:42:47.045Z,21.70
2022-11-21T09:47:46.619Z,22.98
2022-11-21T09:52:47.730Z,22.90
2022-11-21T09:57:48.928Z,20.63
2022-11-21T10:02:47.127Z,24.65
2022-11-21T10:07:47.214Z,25.98
2022-11-21T10:12:52.973Z,23.55
2022-11-21T10:17:58.224Z,20.38
2022-11-21T10:23:04.032Z,11.93
2022-11-21T10:28:06.403Z,7.68
2022-11-21T10:33:05.657Z,5.25
2022-11-21T10:38:05.608Z,7.90
2022-11-21T10:43:27.576Z,6.60
2022-11-21T10:48:25.745Z,8.23
2022-11-21T10:53:43.164Z,8.93
2022-11-21T10:58:44.284Z,5.45
2022-11-21T11:04:00.991Z,7.25
2022-11-21T11:09:02.894Z,8.70
2022-11-21T11:14:03.705Z,10.60
2022-11-21T11:19:03.353Z,11.35
2022-11-21T11:24:20.339Z,7.60
2022-11-21T11:29:20.725Z,4.68
2022-11-21T11:34:19.064Z,5.03
2022-11-21T11:39:20.224Z,7.93
2022-11-21T11:44:41.396Z,9.10
2022-11-21T11:49:55.797Z,6.97
2022-11-21T11:54:57.316Z,13.20
2022-11-21T12:00:00.413Z,13.40
2022-11-21T12:05:00.671Z,16.83
2022-11-21T12:10:00.638Z,14.02
2022-11-21T12:15:20.903Z,28.42
2022-11-21T12:20:21.916Z,22.70
2022-11-21T12:25:21.131Z,18.33
2022-11-21T12:30:40.337Z,15.68
2022-11-21T12:35:48.095Z,5.13
2022-11-21T12:40:49.544Z,5.82
2022-11-21T12:45:52.005Z,4.00
2022-11-21T12:51:12.232Z,6.05
2022-11-21T12:56:15.107Z,4.32
2022-11-21T13:01:22.000Z,6.22
2022-11-21T13:06:22.452Z,4.72
2022-11-21T13:11:47.414Z,4.00
2022-11-21T13:16:50.787Z,3.67
2022-11-21T13:21:50.169Z,5.40
2022-11-21T13:26:56.927Z,5.05
2022-11-21T13:31:56.436Z,4.93
2022-11-21T13:36:54.612Z,5.72
2022-11-21T13:42:20.875Z,4.40
2022-11-21T13:47:56.441Z,10.68
2022-11-21T13:53:02.030Z,4.77
2022-11-21T14:03:10.597Z,4.95
2022-11-21T14:08:18.122Z,4.68
2022-11-21T14:13:22.655Z,5.78
2022-11-21T14:18:22.140Z,7.18
2022-11-21T14:23:22.503Z,5.97
2022-11-21T14:28:23.762Z,4.45
2022-11-21T14:33:25.601Z,7.22
2022-11-21T14:38:25.306Z,9.65
2022-11-21T14:43:33.463Z,13.85
2022-11-21T14:48:32.019Z,12.68
2022-11-21T14:53:33.191Z,10.55
2022-11-21T14:58:31.377Z,10.07
2022-11-21T15:03:29.571Z,15.48
2022-11-21T15:14:12.885Z,22.17
2022-11-21T15:19:10.101Z,31.90
2022-11-21T15:24:17.697Z,52.05
2022-11-21T15:29:21.964Z,53.05
2022-11-21T15:39:45.756Z,16.77
2022-11-21T15:44:59.909Z,16.25
2022-11-21T15:49:58.126Z,40.40
2022-11-21T15:54:56.332Z,24.95
2022-11-21T15:57:12.671Z,28.80
2022-11-21T15:59:54.611Z,36.67
2022-11-21T16:04:54.727Z,34.10
2022-11-21T16:09:53.066Z,18.50
2022-11-21T16:14:51.312Z,49.60
2022-11-21T16:19:49.669Z,35.33
2022-11-21T16:24:49.500Z,26.27
2022-11-21T16:29:47.867Z,19.85
2022-11-21T16:34:47.142Z,15.27
2022-11-21T16:39:51.807Z,9.43
2022-11-21T16:44:51.401Z,12.48
2022-11-21T16:49:49.713Z,13.57
2022-11-21T16:54:47.958Z,15.95
2022-11-21T16:59:47.132Z,9.32
2022-11-21T17:04:47.023Z,18.65
2022-11-21T17:09:45.313Z,15.45
2022-11-21T17:14:43.704Z,26.13
2022-11-21T17:19:41.868Z,13.30
2022-11-21T17:24:41.577Z,8.77
2022-11-21T17:29:39.851Z,9.88
2022-11-21T17:34:38.507Z,14.25
2022-11-21T17:39:37.267Z,18.17
2022-11-21T17:44:36.879Z,9.38
2022-11-21T17:49:37.225Z,14.90
2022-11-21T17:54:35.735Z,14.32
2022-11-21T17:59:34.828Z,8.35
2022-11-21T18:04:38.922Z,11.02
2022-11-21T18:09:37.135Z,11.00
2022-11-21T18:14:35.376Z,9.68
2022-11-21T18:19:35.285Z,13.73
2022-11-21T18:24:33.551Z,13.02
2022-11-21T18:29:36.569Z,16.77
2022-11-21T18:34:36.719Z,13.00
2022-11-21T18:39:35.058Z,10.30
2022-11-21T18:44:33.247Z,14.43
2022-11-21T18:49:31.687Z,11.30
2022-11-21T18:54:31.427Z,11.20
2022-11-21T18:59:30.108Z,12.10
2022-11-21T19:04:28.940Z,14.07
2022-11-21T19:09:32.424Z,10.95
2022-11-21T19:14:32.489Z,10.88
2022-11-21T19:19:35.376Z,10.10
2022-11-21T19:24:34.510Z,10.05
2022-11-21T19:29:36.200Z,8.80
2022-11-21T19:34:34.503Z,12.40
2022-11-21T19:39:32.755Z,12.15
2022-11-21T19:44:31.004Z,11.32
2022-11-21T19:49:31.020Z,10.88
2022-11-21T19:54:29.527Z,11.13
2022-11-21T19:59:28.507Z,14.95
2022-11-21T20:04:27.196Z,13.32
2022-11-21T20:09:30.644Z,14.38
2022-11-21T20:14:32.600Z,14.52
2022-11-21T20:19:31.258Z,14.00
2022-11-21T20:24:31.405Z,14.43
2022-11-21T20:29:30.892Z,13.82
2022-11-21T20:34:29.560Z,31.70
2022-11-21T20:39:31.810Z,12.13
2022-11-21T20:49:49.909Z,14.27
2022-11-21T20:54:48.276Z,16.38
2022-11-21T20:59:47.851Z,11.77
2022-11-21T21:04:46.103Z,31.42
2022-11-21T21:09:44.318Z,15.30
2022-11-21T21:14:42.632Z,14.75
2022-11-21T21:19:42.303Z,21.42
2022-11-21T21:24:40.523Z,14.07
2022-11-21T21:29:38.769Z,12.57
2022-11-21T21:34:37.004Z,11.80
2022-11-21T21:39:36.630Z,17.95
2022-11-21T21:44:35.555Z,17.80
2022-11-21T21:49:34.043Z,11.50
2022-11-21T21:54:32.541Z,18.15
2022-11-21T21:59:33.079Z,11.93
2022-11-21T22:04:32.227Z,13.30
2022-11-21T22:09:30.908Z,13.20
2022-11-21T22:14:29.802Z,12.27
2022-11-21T22:19:29.658Z,45.42
2022-11-21T22:24:28.098Z,10.98
2022-11-21T22:29:26.520Z,10.10
2022-11-21T22:34:24.856Z,10.27
2022-11-21T22:39:24.510Z,10.35
2022-11-21T22:44:22.879Z,10.30
2022-11-21T22:49:21.340Z,10.50
2022-11-21T22:54:19.526Z,12.63
2022-11-21T22:59:19.121Z,10.50
2022-11-21T23:04:17.989Z,11.73
2022-11-21T23:09:16.393Z,11.60
2022-11-21T23:14:14.754Z,12.35
2022-11-21T23:19:14.339Z,11.48
2022-11-21T23:24:12.987Z,11.50
2022-11-21T23:29:11.293Z,12.40
2022-11-21T23:34:11.207Z,10.93
2022-11-21T23:39:10.896Z,18.10
2022-11-21T23:44:09.088Z,12.25
2022-11-21T23:49:07.358Z,12.10
2022-11-21T23:54:06.794Z,11.48
2022-11-21T23:59:06.418Z,22.85
